Time;durP1;ratioP1;P1;durP2;ratioP2;P2;SDS_P1;SDS_P2;PMS_P1;PMS_P2;Temp;Humidity;BMP_temperature;BMP_pressure;BME280_temperature;BME280_humidity;BME280_pressure;Samples;Min_cycle;Max_cycle;Signal;HPM_P1;HPM_P2
2022/01/25 00:28:28;;;;;;;;;76.67;57.33;;;;;;;;5043314;28;45385;-73
2022/01/25 00:33:25;;;;;;;;;74.33;58.67;;;;;;;;5041703;28;45347;-72
2022/01/25 00:35:50;;;;;;;;;76.00;59.33;;;;;;;;5095367;27;45422;-73
2022/01/25 00:38:15;;;;;;;;;71.33;55.00;;;;;;;;5098474;27;45453;-73
2022/01/25 00:40:43;;;;;;;;;78.67;60.33;;;;;;;;5097290;27;45649;-73
2022/01/25 00:43:08;;;;;;;;;70.33;55.67;;;;;;;;5097535;27;45319;-73
2022/01/25 00:45:34;;;;;;;;;78.00;58.67;;;;;;;;5102443;27;45435;-72
2022/01/25 00:48:02;;;;;;;;;73.67;57.67;;;;;;;;5116654;27;45499;-73
2022/01/25 00:50:31;;;;;;;;;79.00;61.67;;;;;;;;5118479;27;45358;-74
2022/01/25 00:55:22;;;;;;;;;75.00;59.33;;;;;;;;5117886;27;45352;-74
2022/01/25 00:57:47;;;;;;;;;76.33;58.67;;;;;;;;5117810;27;45496;-72
2022/01/25 01:00:12;;;;;;;;;77.33;58.00;;;;;;;;5117484;27;46217;-73
2022/01/25 01:02:38;;;;;;;;;77.67;61.33;;;;;;;;5117678;27;45574;-73
2022/01/25 01:05:03;;;;;;;;;80.33;61.33;;;;;;;;5118061;27;45448;-73
2022/01/25 01:07:28;;;;;;;;;79.00;60.00;;;;;;;;5117606;27;45465;-74
2022/01/25 01:09:54;;;;;;;;;80.67;61.00;;;;;;;;5117462;27;46051;-73
2022/01/25 01:13:37;;;;;;;;;76.67;60.33;;;;;;;;5117579;27;45411;-74
2022/01/25 01:29:06;;;;;;;;;77.00;60.00;;;;;;;;5117298;27;45366;-73
2022/01/25 01:31:58;;;;;;;;;75.67;57.67;;;;;;;;5116697;27;46300;-73
2022/01/25 01:37:35;;;;;;;;;72.67;59.67;;;;;;;;5117362;27;45467;-73
2022/01/25 01:48:04;;;;;;;;;76.33;59.00;;;;;;;;5057255;28;45495;-74
2022/01/25 01:50:33;;;;;;;;;71.00;55.33;;;;;;;;5070006;28;45375;-72
2022/01/25 01:52:59;;;;;;;;;78.00;60.33;;;;;;;;5073539;28;47168;-73
2022/01/25 01:55:25;;;;;;;;;78.00;59.67;;;;;;;;5066490;28;45358;-73
2022/01/25 01:57:51;;;;;;;;;79.33;61.00;;;;;;;;5062223;28;45531;-73
2022/01/25 02:00:17;;;;;;;;;76.00;59.33;;;;;;;;5058686;28;45517;-73
2022/01/25 02:02:43;;;;;;;;;75.00;59.67;;;;;;;;5056986;28;46978;-73
2022/01/25 02:05:08;;;;;;;;;80.00;59.33;;;;;;;;5060968;28;45474;-73
2022/01/25 02:07:33;;;;;;;;;80.33;62.00;;;;;;;;5061637;28;45959;-74
2022/01/25 02:09:59;;;;;;;;;74.00;59.00;;;;;;;;5061871;28;45495;-73
2022/01/25 02:12:24;;;;;;;;;79.00;63.00;;;;;;;;5059998;27;45389;-73
2022/01/25 02:14:50;;;;;;;;;81.67;62.00;;;;;;;;5056514;28;45405;-73
2022/01/25 02:22:25;;;;;;;;;81.00;60.33;;;;;;;;5059871;28;45492;-71
2022/01/25 02:22:59;;;;;;;;;81.67;62.33;;;;;;;;5116260;27;45263;-73
2022/01/25 02:25:24;;;;;;;;;79.67;60.33;;;;;;;;5116293;27;45338;-72
2022/01/25 02:27:50;;;;;;;;;80.00;61.00;;;;;;;;5116244;27;47163;-73
2022/01/25 02:30:15;;;;;;;;;81.00;61.33;;;;;;;;5116112;27;45537;-73
2022/01/25 02:32:40;;;;;;;;;79.67;60.67;;;;;;;;5116226;27;45527;-73
2022/01/25 02:35:06;;;;;;;;;79.67;61.67;;;;;;;;5115348;27;45407;-73
2022/01/25 02:37:32;;;;;;;;;74.67;58.00;;;;;;;;5116037;27;45520;-73
2022/01/25 02:39:57;;;;;;;;;76.67;60.67;;;;;;;;5116078;27;45540;-74
2022/01/25 02:42:23;;;;;;;;;79.00;61.00;;;;;;;;5116111;27;46997;-73
2022/01/25 02:44:49;;;;;;;;;76.33;61.33;;;;;;;;5115726;27;45473;-73
2022/01/25 02:49:58;;;;;;;;;75.00;59.33;;;;;;;;5095617;27;45358;-73
2022/01/25 02:52:23;;;;;;;;;83.67;65.00;;;;;;;;5095321;27;46041;-73
2022/01/25 02:54:48;;;;;;;;;78.67;62.67;;;;;;;;5095294;27;45279;-73
2022/01/25 02:57:14;;;;;;;;;76.33;60.67;;;;;;;;5095430;27;45456;-73
2022/01/25 02:59:39;;;;;;;;;81.00;61.67;;;;;;;;5094895;27;45684;-72
2022/01/25 03:02:04;;;;;;;;;79.67;61.33;;;;;;;;5095604;27;46119;-72
2022/01/25 03:04:29;;;;;;;;;75.33;60.00;;;;;;;;5095029;27;45311;-73
2022/01/25 03:06:55;;;;;;;;;81.67;63.33;;;;;;;;5095160;27;45459;-73
2022/01/25 03:09:20;;;;;;;;;75.00;57.67;;;;;;;;5095273;27;45449;-73
2022/01/25 03:11:49;;;;;;;;;78.00;58.00;;;;;;;;5094393;27;46072;-73
2022/01/25 03:14:14;;;;;;;;;82.33;60.67;;;;;;;;5093357;27;45413;-74
2022/01/25 03:17:03;;;;;;;;;76.67;61.00;;;;;;;;5095272;27;45611;-74
2022/01/25 03:22:12;;;;;;;;;73.33;60.00;;;;;;;;5094900;27;46101;-73
2022/01/25 03:24:37;;;;;;;;;81.00;61.00;;;;;;;;5095157;27;45533;-74
2022/01/25 03:27:03;;;;;;;;;77.67;61.00;;;;;;;;5094913;27;45339;-72
2022/01/25 03:29:28;;;;;;;;;78.00;61.67;;;;;;;;5095615;27;45477;-73
2022/01/25 03:31:53;;;;;;;;;80.00;62.67;;;;;;;;5095075;27;45666;-74
2022/01/25 03:34:18;;;;;;;;;76.33;61.00;;;;;;;;5095134;27;45372;-73
2022/01/25 03:36:43;;;;;;;;;72.67;60.00;;;;;;;;5094971;27;45353;-73
2022/01/25 03:39:09;;;;;;;;;69.67;54.00;;;;;;;;5095116;27;45415;-73
2022/01/25 03:41:35;;;;;;;;;74.33;55.33;;;;;;;;5094684;27;46204;-73
2022/01/25 03:44:00;;;;;;;;;62.67;50.00;;;;;;;;5098265;27;45398;-74
2022/01/25 03:46:39;;;;;;;;;71.00;54.67;;;;;;;;5102577;27;45402;-73
2022/01/25 03:51:49;;;;;;;;;66.50;51.75;;;;;;;;5115022;27;45844;-73
2022/01/25 03:54:15;;;;;;;;;63.75;50.00;;;;;;;;5115184;27;45401;-74
2022/01/25 03:56:40;;;;;;;;;61.75;49.00;;;;;;;;5114748;27;45257;-73
2022/01/25 03:59:06;;;;;;;;;50.25;40.75;;;;;;;;5115231;27;45585;-74
2022/01/25 04:01:32;;;;;;;;;54.00;41.25;;;;;;;;5114671;27;46407;-74
2022/01/25 04:04:01;;;;;;;;;51.25;40.75;;;;;;;;5114626;27;45360;-74
2022/01/25 04:06:29;;;;;;;;;55.50;42.25;;;;;;;;5115118;27;45463;-74
2022/01/25 04:08:55;;;;;;;;;56.75;46.75;;;;;;;;5114965;27;45521;-74
2022/01/25 04:11:20;;;;;;;;;61.00;44.50;;;;;;;;5115215;27;46155;-73
2022/01/25 04:13:45;;;;;;;;;61.67;49.67;;;;;;;;5114463;27;45320;-73
2022/01/25 04:16:16;;;;;;;;;77.00;61.33;;;;;;;;5114391;27;45444;-73
2022/01/25 04:26:44;;;;;;;;;75.33;60.00;;;;;;;;5115649;27;45364;-73
2022/01/25 04:29:09;;;;;;;;;79.67;59.67;;;;;;;;5118496;27;45490;-73
2022/01/25 04:31:36;;;;;;;;;74.67;59.00;;;;;;;;5117710;27;45492;-72
2022/01/25 04:34:26;;;;;;;;;76.33;60.33;;;;;;;;5117891;27;45322;-73
2022/01/25 04:48:49;;;;;;;;;76.33;60.33;;;;;;;;5117926;27;45294;-74
2022/01/25 04:53:13;;;;;;;;;74.67;58.00;;;;;;;;5118075;27;45350;-73
2022/01/25 04:55:55;;;;;;;;;77.33;58.33;;;;;;;;5117406;27;45502;-73
2022/01/25 04:58:29;;;;;;;;;76.67;58.33;;;;;;;;5117672;27;45320;-73
2022/01/25 05:00:54;;;;;;;;;76.00;59.33;;;;;;;;5117497;27;45339;-73
2022/01/25 05:03:27;;;;;;;;;73.33;57.00;;;;;;;;5117449;27;46143;-74
2022/01/25 05:06:02;;;;;;;;;63.33;52.00;;;;;;;;5117403;27;45325;-74
2022/01/25 05:08:36;;;;;;;;;69.67;56.00;;;;;;;;5117733;27;45345;-73
2022/01/25 05:11:09;;;;;;;;;71.33;56.67;;;;;;;;5117101;27;45465;-74
2022/01/25 05:16:27;;;;;;;;;75.33;56.00;;;;;;;;5117106;27;45421;-74
2022/01/25 05:24:23;;;;;;;;;73.00;57.67;;;;;;;;5116795;27;45758;-73
2022/01/25 05:26:48;;;;;;;;;78.33;58.33;;;;;;;;5116844;27;45443;-73
2022/01/25 05:29:13;;;;;;;;;74.00;57.67;;;;;;;;5117422;27;45728;-74
2022/01/25 05:31:38;;;;;;;;;70.67;54.67;;;;;;;;5116630;27;45290;-73
2022/01/25 05:34:04;;;;;;;;;79.67;62.33;;;;;;;;5096186;27;45903;-73
2022/01/25 05:36:29;;;;;;;;;69.67;54.33;;;;;;;;5116476;27;45475;-73
2022/01/25 05:38:57;;;;;;;;;76.33;60.00;;;;;;;;5116334;27;45417;-74
2022/01/25 05:41:26;;;;;;;;;78.33;60.67;;;;;;;;5117085;27;45321;-73
2022/01/25 05:46:38;;;;;;;;;76.00;53.00;;;;;;;;5116033;27;45459;-73
2022/01/25 05:49:03;;;;;;;;;77.00;61.00;;;;;;;;5115947;27;45750;-73
2022/01/25 05:51:28;;;;;;;;;77.00;58.33;;;;;;;;5116376;27;45404;-73
2022/01/25 05:53:53;;;;;;;;;71.00;56.33;;;;;;;;5115767;27;45279;-74
2022/01/25 05:56:19;;;;;;;;;76.33;59.33;;;;;;;;5097513;27;45795;-73
2022/01/25 05:58:44;;;;;;;;;74.67;57.33;;;;;;;;5116017;27;45400;-73
2022/01/25 06:01:09;;;;;;;;;75.67;59.67;;;;;;;;5116072;27;45428;-74
2022/01/25 06:03:35;;;;;;;;;77.67;59.33;;;;;;;;5116317;27;45551;-74
2022/01/25 06:06:00;;;;;;;;;75.67;59.00;;;;;;;;5115821;27;45486;-73
2022/01/25 06:08:25;;;;;;;;;80.67;60.00;;;;;;;;5115795;27;45316;-73
2022/01/25 06:10:51;;;;;;;;;71.33;56.00;;;;;;;;5115593;27;45389;-74
2022/01/25 06:13:16;;;;;;;;;83.33;63.00;;;;;;;;5116108;27;45308;-73
2022/01/25 06:15:41;;;;;;;;;76.00;59.33;;;;;;;;5115599;27;45278;-74
2022/01/25 06:18:06;;;;;;;;;79.33;61.00;;;;;;;;5115520;27;45489;-73
2022/01/25 06:20:33;;;;;;;;;69.00;53.00;;;;;;;;5115708;27;45432;-73
2022/01/25 06:22:58;;;;;;;;;70.33;56.00;;;;;;;;5114594;27;46589;-73
2022/01/25 06:25:24;;;;;;;;;73.33;56.33;;;;;;;;5115862;27;45554;-74
2022/01/25 06:27:49;;;;;;;;;73.00;56.33;;;;;;;;5115721;27;45537;-75
2022/01/25 06:30:15;;;;;;;;;77.67;59.00;;;;;;;;5115588;27;45506;-74
2022/01/25 06:32:41;;;;;;;;;77.67;61.00;;;;;;;;5115282;27;45827;-73
2022/01/25 06:35:07;;;;;;;;;68.67;55.33;;;;;;;;5115560;27;45280;-74
2022/01/25 06:37:32;;;;;;;;;75.33;56.00;;;;;;;;5114555;27;45478;-74
2022/01/25 06:39:58;;;;;;;;;68.67;56.00;;;;;;;;5114817;27;45412;-74
2022/01/25 06:42:26;;;;;;;;;75.33;58.67;;;;;;;;5114919;27;46191;-74
2022/01/25 06:44:55;;;;;;;;;75.67;57.00;;;;;;;;5114648;27;45483;-75
2022/01/25 06:47:20;;;;;;;;;68.00;55.00;;;;;;;;5114882;27;45475;-73
2022/01/25 06:49:45;;;;;;;;;70.00;53.67;;;;;;;;5115059;27;45308;-74
2022/01/25 06:52:11;;;;;;;;;72.33;53.67;;;;;;;;5114483;27;46037;-75
2022/01/25 06:54:36;;;;;;;;;69.67;55.33;;;;;;;;5114631;27;45324;-74
2022/01/25 06:57:01;;;;;;;;;71.33;57.00;;;;;;;;5114722;27;45332;-74
2022/01/25 06:59:26;;;;;;;;;76.00;56.33;;;;;;;;5131376;27;45456;-74
2022/01/25 07:01:51;;;;;;;;;74.33;56.00;;;;;;;;5114892;27;46309;-74
2022/01/25 07:04:17;;;;;;;;;71.00;53.00;;;;;;;;5114454;27;45395;-74
2022/01/25 07:06:42;;;;;;;;;65.00;53.00;;;;;;;;5114295;27;45494;-74
2022/01/25 07:09:09;;;;;;;;;66.67;51.00;;;;;;;;5092019;27;45510;-74
2022/01/25 07:11:34;;;;;;;;;77.33;57.33;;;;;;;;5114580;27;46159;-73
2022/01/25 07:13:59;;;;;;;;;71.33;55.33;;;;;;;;5114216;27;45452;-75
2022/01/25 07:16:25;;;;;;;;;71.33;58.00;;;;;;;;5114573;27;45386;-76
2022/01/25 07:18:50;;;;;;;;;76.33;57.00;;;;;;;;5114217;27;45399;-78
2022/01/25 07:21:16;;;;;;;;;66.33;53.67;;;;;;;;5113761;27;46063;-79
2022/01/25 07:23:41;;;;;;;;;71.00;55.67;;;;;;;;5113754;27;45320;-77
2022/01/25 07:26:06;;;;;;;;;72.00;56.00;;;;;;;;5095689;27;45621;-79
2022/01/25 07:28:33;;;;;;;;;76.67;58.33;;;;;;;;5113880;27;45470;-78
2022/01/25 07:30:58;;;;;;;;;70.00;55.67;;;;;;;;5113603;27;47029;-75
2022/01/25 07:33:24;;;;;;;;;68.00;51.33;;;;;;;;5095009;27;45323;-78
2022/01/25 07:35:49;;;;;;;;;77.00;56.00;;;;;;;;5113513;27;45231;-74
2022/01/25 07:38:15;;;;;;;;;77.33;59.67;;;;;;;;5113876;27;45287;-74
2022/01/25 07:40:40;;;;;;;;;75.00;57.67;;;;;;;;5113330;27;46125;-74
2022/01/25 07:43:07;;;;;;;;;79.33;61.67;;;;;;;;5113576;27;45484;-75
2022/01/25 07:45:35;;;;;;;;;74.67;56.00;;;;;;;;5113672;27;45590;-75
2022/01/25 07:48:01;;;;;;;;;75.33;56.33;;;;;;;;5113941;27;47075;-73
2022/01/25 07:50:27;;;;;;;;;75.33;57.00;;;;;;;;5114267;27;47484;-74
2022/01/25 07:52:54;;;;;;;;;67.00;50.33;;;;;;;;5113754;27;45536;-75
2022/01/25 07:55:19;;;;;;;;;77.00;57.00;;;;;;;;5113324;27;45498;-74
2022/01/25 07:57:44;;;;;;;;;70.33;53.00;;;;;;;;5115708;27;45465;-74
2022/01/25 08:00:10;;;;;;;;;73.33;56.33;;;;;;;;5117675;27;47010;-75
2022/01/25 08:02:35;;;;;;;;;68.67;54.67;;;;;;;;5117467;27;45387;-75
2022/01/25 08:05:00;;;;;;;;;65.33;53.00;;;;;;;;5117377;27;45341;-74
2022/01/25 08:07:25;;;;;;;;;73.00;58.00;;;;;;;;5117022;27;45410;-74
2022/01/25 08:09:51;;;;;;;;;77.67;58.00;;;;;;;;5116513;27;45476;-75
2022/01/25 08:12:16;;;;;;;;;70.67;54.00;;;;;;;;5117058;27;45481;-75
2022/01/25 08:14:43;;;;;;;;;76.33;57.33;;;;;;;;5118424;27;45345;-75
2022/01/25 08:17:08;;;;;;;;;73.00;53.00;;;;;;;;5121791;27;45440;-75
2022/01/25 08:19:33;;;;;;;;;70.33;54.00;;;;;;;;5119285;27;46131;-75
2022/01/25 08:21:59;;;;;;;;;71.67;55.33;;;;;;;;5116888;27;45414;-76
2022/01/25 08:24:25;;;;;;;;;77.33;58.67;;;;;;;;5116705;27;45377;-76
2022/01/25 08:26:50;;;;;;;;;71.67;56.33;;;;;;;;5117012;27;45497;-76
2022/01/25 08:29:15;;;;;;;;;81.00;61.00;;;;;;;;5117952;27;46223;-76
2022/01/25 08:31:41;;;;;;;;;73.00;55.67;;;;;;;;5117196;27;45328;-75
2022/01/25 08:34:11;;;;;;;;;76.00;58.00;;;;;;;;5118301;27;45489;-75
2022/01/25 08:36:37;;;;;;;;;71.33;54.67;;;;;;;;5118141;27;45556;-73
2022/01/25 08:39:03;;;;;;;;;75.00;57.67;;;;;;;;5112704;27;48024;-77
2022/01/25 08:41:28;;;;;;;;;74.33;57.33;;;;;;;;5116947;27;45441;-77
2022/01/25 08:43:54;;;;;;;;;79.00;56.67;;;;;;;;5116368;27;45320;-76
2022/01/25 08:46:19;;;;;;;;;75.67;56.33;;;;;;;;5114935;27;45357;-77
2022/01/25 08:48:47;;;;;;;;;75.33;56.33;;;;;;;;5116494;27;45332;-77
2022/01/25 08:51:13;;;;;;;;;70.33;54.33;;;;;;;;5116374;27;45383;-76
2022/01/25 08:53:38;;;;;;;;;73.33;57.00;;;;;;;;5117161;27;45408;-76
2022/01/25 08:56:05;;;;;;;;;75.67;56.33;;;;;;;;5116954;27;45507;-76
2022/01/25 08:58:30;;;;;;;;;69.67;55.33;;;;;;;;5116610;27;46930;-75
2022/01/25 09:00:55;;;;;;;;;72.67;57.00;;;;;;;;5115810;27;45514;-75
2022/01/25 09:03:21;;;;;;;;;77.67;57.00;;;;;;;;5116801;27;45382;-77
2022/01/25 09:05:46;;;;;;;;;74.33;56.33;;;;;;;;5117142;27;45394;-76
2022/01/25 09:08:18;;;;;;;;;75.00;57.00;;;;;;;;5117330;27;46224;-77
2022/01/25 09:10:44;;;;;;;;;76.67;56.00;;;;;;;;5116261;27;45567;-76
2022/01/25 09:13:09;;;;;;;;;74.33;57.00;;;;;;;;5117409;27;45224;-76
2022/01/25 09:15:34;;;;;;;;;71.33;57.67;;;;;;;;5116487;27;45409;-75
2022/01/25 09:17:59;;;;;;;;;69.33;53.00;;;;;;;;5117533;27;45437;-75
2022/01/25 09:20:25;;;;;;;;;70.00;55.00;;;;;;;;5101021;27;45552;-76
2022/01/25 09:22:50;;;;;;;;;74.00;56.67;;;;;;;;5121606;27;45237;-75
2022/01/25 09:25:15;;;;;;;;;69.00;54.67;;;;;;;;5130377;27;45206;-74
2022/01/25 09:27:40;;;;;;;;;78.33;57.67;;;;;;;;5132446;27;46502;-74
2022/01/25 09:30:06;;;;;;;;;77.00;57.00;;;;;;;;5132808;27;45231;-74
2022/01/25 09:32:31;;;;;;;;;69.67;52.67;;;;;;;;5127522;27;45823;-75
2022/01/25 09:34:56;;;;;;;;;76.33;58.33;;;;;;;;5117673;27;45346;-75
2022/01/25 09:37:21;;;;;;;;;78.33;58.33;;;;;;;;5117427;27;46165;-74
2022/01/25 09:39:47;;;;;;;;;80.67;59.00;;;;;;;;5098972;27;45753;-73
2022/01/25 09:42:12;;;;;;;;;77.00;59.00;;;;;;;;5117683;27;45565;-74
2022/01/25 09:44:38;;;;;;;;;79.33;60.00;;;;;;;;5117419;27;45326;-74
2022/01/25 09:47:04;;;;;;;;;77.00;58.33;;;;;;;;5116774;27;47010;-74
2022/01/25 09:49:30;;;;;;;;;83.67;63.00;;;;;;;;5116868;27;45541;-74
2022/01/25 09:51:55;;;;;;;;;81.33;59.00;;;;;;;;5116851;27;45518;-74
2022/01/25 09:54:21;;;;;;;;;76.67;57.67;;;;;;;;5116533;27;45444;-74
2022/01/25 09:56:46;;;;;;;;;75.00;56.00;;;;;;;;5116685;27;45569;-75
2022/01/25 09:59:11;;;;;;;;;75.67;57.33;;;;;;;;5116544;27;45414;-74
2022/01/25 10:01:37;;;;;;;;;69.33;54.33;;;;;;;;5117019;27;45438;-74
2022/01/25 10:04:05;;;;;;;;;75.67;58.00;;;;;;;;5116432;27;45331;-74
2022/01/25 10:06:32;;;;;;;;;72.00;54.33;;;;;;;;5115962;27;47332;-74
2022/01/25 10:08:57;;;;;;;;;70.67;57.33;;;;;;;;5115736;27;45363;-74
2022/01/25 10:11:23;;;;;;;;;75.00;58.00;;;;;;;;5116232;27;45326;-74
2022/01/25 10:13:55;;;;;;;;;73.67;58.33;;;;;;;;5115185;27;45337;-75
2022/01/25 10:16:28;;;;;;;;;73.00;55.33;;;;;;;;5115254;27;46992;-75
2022/01/25 10:18:58;;;;;;;;;76.67;58.00;;;;;;;;5115630;27;45330;-75
2022/01/25 10:21:28;;;;;;;;;75.67;59.00;;;;;;;;5116024;27;45498;-75
2022/01/25 10:23:59;;;;;;;;;72.33;55.33;;;;;;;;5114809;27;45258;-77
2022/01/25 10:26:25;;;;;;;;;76.67;56.33;;;;;;;;5115879;27;46677;-76
2022/01/25 10:28:50;;;;;;;;;72.33;55.00;;;;;;;;5115225;27;45486;-76
2022/01/25 10:31:16;;;;;;;;;67.33;49.67;;;;;;;;5115937;27;45533;-76
2022/01/25 10:33:51;;;;;;;;;82.67;61.33;;;;;;;;5093902;27;45754;-76
2022/01/25 10:36:19;;;;;;;;;76.67;57.67;;;;;;;;5115773;27;46692;-77
2022/01/25 10:38:45;;;;;;;;;75.67;55.00;;;;;;;;5115276;27;45330;-76
2022/01/25 10:41:12;;;;;;;;;80.33;60.00;;;;;;;;5116100;27;45413;-76
2022/01/25 10:43:38;;;;;;;;;73.33;54.33;;;;;;;;5115280;27;45615;-77
2022/01/25 10:46:09;;;;;;;;;76.00;54.00;;;;;;;;5114044;27;45999;-76
2022/01/25 10:48:35;;;;;;;;;68.67;54.00;;;;;;;;5115096;27;45322;-77
2022/01/25 10:51:27;;;;;;;;;76.00;54.00;;;;;;;;5115463;27;45436;-76
2022/01/25 10:53:57;;;;;;;;;72.67;56.67;;;;;;;;5110999;27;45317;-76
2022/01/25 10:56:23;;;;;;;;;68.67;54.33;;;;;;;;5115930;27;45582;-76
2022/01/25 10:58:48;;;;;;;;;78.67;58.00;;;;;;;;5114701;27;46217;-77
2022/01/25 11:01:28;;;;;;;;;66.33;54.00;;;;;;;;5115107;27;45514;-76
2022/01/25 11:04:02;;;;;;;;;67.33;55.00;;;;;;;;5115526;27;45448;-75
2022/01/25 11:06:27;;;;;;;;;73.33;55.33;;;;;;;;5116739;27;46562;-76
2022/01/25 11:08:54;;;;;;;;;76.00;55.67;;;;;;;;5116373;27;45389;-77
2022/01/25 11:11:27;;;;;;;;;73.33;56.33;;;;;;;;5115084;27;45318;-77
2022/01/25 11:13:54;;;;;;;;;77.33;55.33;;;;;;;;5114993;27;45469;-77
2022/01/25 11:16:19;;;;;;;;;67.33;53.33;;;;;;;;5113300;27;49573;-77
2022/01/25 11:18:45;;;;;;;;;73.33;55.67;;;;;;;;5114481;27;45557;-76
2022/01/25 11:21:11;;;;;;;;;71.67;54.00;;;;;;;;5115279;27;45515;-79
2022/01/25 11:23:37;;;;;;;;;64.33;51.00;;;;;;;;5114971;27;45447;-77
2022/01/25 11:26:04;;;;;;;;;69.00;53.33;;;;;;;;5113917;27;45321;-78
2022/01/25 11:28:31;;;;;;;;;74.00;55.67;;;;;;;;5114530;27;46083;-76
2022/01/25 11:30:57;;;;;;;;;71.00;55.00;;;;;;;;5114793;27;45498;-77
2022/01/25 11:33:23;;;;;;;;;73.00;55.00;;;;;;;;5117565;27;45289;-77
2022/01/25 11:35:49;;;;;;;;;68.33;52.33;;;;;;;;5118577;27;47567;-78
2022/01/25 11:38:14;;;;;;;;;65.33;50.67;;;;;;;;5118921;27;45439;-77
2022/01/25 11:40:41;;;;;;;;;76.67;55.00;;;;;;;;5118144;27;45395;-77
2022/01/25 11:43:11;;;;;;;;;74.00;56.00;;;;;;;;5118409;27;45649;-77
2022/01/25 11:45:38;;;;;;;;;68.00;54.33;;;;;;;;5117734;27;45464;-77
2022/01/25 11:48:03;;;;;;;;;75.33;59.33;;;;;;;;5100315;27;45570;-78
2022/01/25 11:50:33;;;;;;;;;70.00;51.00;;;;;;;;5118000;27;45388;-77
2022/01/25 11:53:07;;;;;;;;;71.67;52.33;;;;;;;;5117181;27;45323;-77
2022/01/25 11:55:38;;;;;;;;;74.67;56.33;;;;;;;;5115931;27;46308;-78
2022/01/25 11:58:08;;;;;;;;;61.33;51.67;;;;;;;;5117550;27;45339;-76
2022/01/25 12:00:36;;;;;;;;;75.00;55.67;;;;;;;;5116769;27;45629;-77
2022/01/25 12:03:04;;;;;;;;;73.00;55.00;;;;;;;;5117773;27;45384;-76
2022/01/25 12:05:29;;;;;;;;;73.00;55.33;;;;;;;;5118019;27;45527;-77
2022/01/25 12:08:06;;;;;;;;;72.33;53.00;;;;;;;;5116235;27;45414;-77
2022/01/25 12:10:40;;;;;;;;;68.33;55.00;;;;;;;;5117104;27;45312;-75
2022/01/25 12:13:16;;;;;;;;;74.00;56.67;;;;;;;;5116922;27;45526;-77
2022/01/25 12:15:42;;;;;;;;;72.00;56.67;;;;;;;;5117538;27;45356;-76
2022/01/25 12:18:28;;;;;;;;;72.33;54.00;;;;;;;;5098379;27;45402;-77
2022/01/25 12:20:53;;;;;;;;;72.33;54.00;;;;;;;;5115990;27;45269;-77
2022/01/25 12:23:35;;;;;;;;;65.33;52.67;;;;;;;;5117935;27;45408;-76
2022/01/25 12:26:05;;;;;;;;;66.00;52.33;;;;;;;;5097687;27;46405;-75
2022/01/25 12:28:34;;;;;;;;;72.33;55.67;;;;;;;;5117059;27;45466;-76
2022/01/25 12:31:00;;;;;;;;;69.33;54.67;;;;;;;;5117100;27;45463;-75
2022/01/25 12:33:27;;;;;;;;;69.33;53.33;;;;;;;;5117823;27;45444;-76
2022/01/25 12:36:04;;;;;;;;;74.00;54.33;;;;;;;;5116989;27;46276;-76
2022/01/25 12:38:29;;;;;;;;;71.67;55.67;;;;;;;;5133341;27;45488;-75
2022/01/25 12:40:59;;;;;;;;;74.33;54.33;;;;;;;;5115072;27;45553;-77
2022/01/25 12:43:33;;;;;;;;;78.33;55.67;;;;;;;;5115952;27;45230;-77
2022/01/25 12:45:58;;;;;;;;;76.00;57.67;;;;;;;;5116698;27;47014;-76
2022/01/25 12:48:27;;;;;;;;;72.00;55.00;;;;;;;;5117071;27;45285;-76
2022/01/25 12:50:54;;;;;;;;;67.33;52.00;;;;;;;;5116924;27;45468;-76
2022/01/25 12:53:21;;;;;;;;;66.75;51.75;;;;;;;;5117398;27;45501;-76
2022/01/25 12:55:49;;;;;;;;;68.50;54.00;;;;;;;;5117346;27;47199;-76
2022/01/25 12:58:14;;;;;;;;;76.00;55.33;;;;;;;;5118907;27;45428;-75
2022/01/25 13:00:41;;;;;;;;;66.33;53.00;;;;;;;;5117821;27;46016;-75
2022/01/25 13:03:17;;;;;;;;;72.00;53.00;;;;;;;;5117671;27;45324;-75
2022/01/25 13:05:50;;;;;;;;;66.00;52.67;;;;;;;;5117439;27;47148;-75
2022/01/25 13:08:15;;;;;;;;;67.25;52.75;;;;;;;;5115307;27;45493;-75
2022/01/25 13:10:40;;;;;;;;;67.00;51.00;;;;;;;;5115892;27;45363;-76
2022/01/25 13:13:21;;;;;;;;;68.00;52.67;;;;;;;;5116252;27;45452;-76
2022/01/25 13:18:12;;;;;;;;;83.00;60.67;;;;;;;;5116150;27;45570;-76
2022/01/25 13:20:38;;;;;;;;;69.25;51.25;;;;;;;;5116629;27;45504;-75
2022/01/25 13:23:03;;;;;;;;;65.00;48.00;;;;;;;;5116055;27;45684;-75
2022/01/25 13:25:35;;;;;;;;;72.25;55.50;;;;;;;;5114531;27;45334;-74
2022/01/25 13:28:12;;;;;;;;;67.50;52.50;;;;;;;;5116236;27;47292;-76
2022/01/25 13:30:41;;;;;;;;;73.00;54.33;;;;;;;;5115259;27;45465;-76
2022/01/25 13:33:11;;;;;;;;;65.75;52.50;;;;;;;;5109346;27;45341;-74
2022/01/25 13:35:40;;;;;;;;;71.50;54.00;;;;;;;;5096887;27;47779;-76
2022/01/25 13:38:07;;;;;;;;;66.25;51.00;;;;;;;;5115238;27;45270;-76
2022/01/25 13:40:46;;;;;;;;;69.75;53.00;;;;;;;;5114923;27;45286;-76
2022/01/25 13:45:57;;;;;;;;;67.75;52.00;;;;;;;;5114837;27;45529;-75
2022/01/25 13:48:24;;;;;;;;;68.67;52.00;;;;;;;;5115857;27;45431;-75
2022/01/25 13:50:54;;;;;;;;;67.50;50.50;;;;;;;;5115736;27;45334;-75
2022/01/25 13:53:19;;;;;;;;;60.50;45.25;;;;;;;;5116369;27;45719;-75
2022/01/25 13:55:48;;;;;;;;;70.00;52.00;;;;;;;;5115228;27;47021;-78
2022/01/25 13:58:21;;;;;;;;;65.75;52.00;;;;;;;;5115629;27;45399;-73
2022/01/25 14:00:47;;;;;;;;;68.75;48.50;;;;;;;;5115059;27;45329;-74
2022/01/25 14:03:12;;;;;;;;;70.67;55.33;;;;;;;;5115596;27;45297;-74
2022/01/25 14:05:38;;;;;;;;;69.50;52.50;;;;;;;;5096639;27;46564;-74
2022/01/25 14:08:03;;;;;;;;;63.25;51.00;;;;;;;;5115141;27;45268;-74
2022/01/25 14:10:29;;;;;;;;;66.00;48.75;;;;;;;;5115624;27;45550;-74
2022/01/25 14:23:52;;;;;;;;;69.00;54.00;;;;;;;;5115307;27;45290;-74
2022/01/25 14:26:18;;;;;;;;;66.67;53.67;;;;;;;;5115727;27;46232;-74
2022/01/25 14:28:52;;;;;;;;;69.67;52.00;;;;;;;;5114546;27;45543;-75
2022/01/25 14:31:19;;;;;;;;;71.00;54.67;;;;;;;;5115089;27;45340;-74
2022/01/25 14:33:52;;;;;;;;;69.33;53.67;;;;;;;;5114847;27;45483;-74
2022/01/25 14:36:17;;;;;;;;;72.00;52.00;;;;;;;;5114114;27;47663;-74
2022/01/25 14:38:43;;;;;;;;;68.25;46.50;;;;;;;;5115326;27;45315;-75
2022/01/25 14:41:16;;;;;;;;;67.00;50.67;;;;;;;;5115440;27;45460;-74
2022/01/25 14:43:47;;;;;;;;;64.67;51.00;;;;;;;;5114528;27;45635;-74
2022/01/25 14:46:15;;;;;;;;;63.67;48.67;;;;;;;;5095720;27;47467;-75
2022/01/25 14:48:44;;;;;;;;;61.00;46.33;;;;;;;;5115162;27;45581;-75
2022/01/25 14:51:11;;;;;;;;;69.33;52.00;;;;;;;;5115868;27;45718;-75
2022/01/25 14:53:36;;;;;;;;;70.67;52.00;;;;;;;;5116478;27;45532;-75
2022/01/25 14:56:03;;;;;;;;;73.67;56.00;;;;;;;;5114704;27;46975;-74
2022/01/25 15:01:27;;;;;;;;;67.67;51.67;;;;;;;;5024369;28;45478;-75
2022/01/25 15:03:52;;;;;;;;;66.00;51.33;;;;;;;;5028375;28;45443;-77
2022/01/25 15:06:18;;;;;;;;;65.25;50.50;;;;;;;;5030376;28;45429;-76
2022/01/25 15:08:50;;;;;;;;;65.75;49.50;;;;;;;;5030667;28;45281;-76
2022/01/25 15:11:15;;;;;;;;;67.00;48.33;;;;;;;;5027993;28;45542;-77
2022/01/25 15:13:40;;;;;;;;;66.67;51.00;;;;;;;;5021923;28;45309;-75
2022/01/25 15:16:06;;;;;;;;;74.00;53.00;;;;;;;;5019444;28;47004;-76
2022/01/25 15:18:34;;;;;;;;;70.67;51.67;;;;;;;;5018414;28;45474;-77
2022/01/25 15:21:01;;;;;;;;;65.75;51.75;;;;;;;;5017602;28;45400;-77
2022/01/25 15:23:28;;;;;;;;;65.33;49.00;;;;;;;;5029011;28;45496;-77
2022/01/25 15:25:56;;;;;;;;;53.00;39.75;;;;;;;;5019649;28;46388;-77
2022/01/25 15:28:23;;;;;;;;;64.25;49.25;;;;;;;;5023820;28;45397;-76
2022/01/25 15:30:48;;;;;;;;;66.33;52.00;;;;;;;;5020123;28;45463;-77
2022/01/25 15:33:14;;;;;;;;;66.33;51.00;;;;;;;;5027973;28;45494;-77
2022/01/25 15:35:39;;;;;;;;;64.67;49.00;;;;;;;;5015274;28;46044;-77
2022/01/25 15:38:04;;;;;;;;;67.33;50.67;;;;;;;;5107757;27;45296;-76
2022/01/25 15:40:32;;;;;;;;;68.33;53.00;;;;;;;;5114593;27;45395;-75
2022/01/25 15:42:57;;;;;;;;;66.33;52.33;;;;;;;;5114072;27;45580;-75
2022/01/25 15:45:43;;;;;;;;;65.00;48.75;;;;;;;;5114525;27;45561;-76
2022/01/25 15:48:07;;;;;;;;;61.67;47.33;;;;;;;;5107382;27;45549;-77
2022/01/25 15:50:33;;;;;;;;;66.50;49.00;;;;;;;;5115586;27;45298;-72
2022/01/25 15:52:58;;;;;;;;;60.00;47.50;;;;;;;;5113848;27;45324;-72
2022/01/25 15:55:23;;;;;;;;;68.00;51.00;;;;;;;;5113435;27;45823;-74
2022/01/25 15:57:48;;;;;;;;;65.00;50.50;;;;;;;;5113402;27;45662;-73
2022/01/25 16:00:14;;;;;;;;;62.25;46.75;;;;;;;;5095747;27;45550;-73
2022/01/25 16:02:39;;;;;;;;;68.67;53.67;;;;;;;;5113677;27;45547;-73
2022/01/25 16:05:04;;;;;;;;;64.33;51.00;;;;;;;;5114205;27;46141;-73
2022/01/25 16:07:29;;;;;;;;;64.75;47.25;;;;;;;;5113252;27;46175;-74
2022/01/25 16:09:57;;;;;;;;;67.50;48.75;;;;;;;;5114142;27;45491;-73
2022/01/25 16:12:22;;;;;;;;;57.00;46.50;;;;;;;;5113320;27;45498;-74
2022/01/25 16:14:48;;;;;;;;;63.00;51.00;;;;;;;;5113276;27;47791;-74
2022/01/25 16:17:13;;;;;;;;;67.50;51.00;;;;;;;;5094661;27;45277;-73